createdAt,value
2022-11-24T00:01:55.696Z,94.10
2022-11-24T00:04:26.918Z,94.20
2022-11-24T00:06:56.839Z,94.40
2022-11-24T00:09:26.843Z,94.40
2022-11-24T00:11:56.663Z,94.40
2022-11-24T00:14:26.449Z,94.30
2022-11-24T00:16:56.533Z,94.20
2022-11-24T00:19:26.524Z,94.10
2022-11-24T00:21:56.498Z,94.20
2022-11-24T00:24:26.376Z,94.30
2022-11-24T00:26:56.222Z,94.20
2022-11-24T00:29:26.114Z,94.20
2022-11-24T00:31:56.018Z,94.30
2022-11-24T00:34:25.864Z,94.30
2022-11-24T00:36:55.655Z,94.30
2022-11-24T00:39:25.856Z,94.30
2022-11-24T00:41:55.660Z,94.30
2022-11-24T00:44:25.451Z,94.30
2022-11-24T00:46:55.519Z,94.20
2022-11-24T00:49:25.418Z,94.30
2022-11-24T00:51:55.388Z,94.30
2022-11-24T00:54:25.406Z,94.50
2022-11-24T00:56:55.187Z,94.60
2022-11-24T00:59:25.487Z,94.40
2022-11-24T01:01:55.662Z,94.40
2022-11-24T01:04:26.191Z,94.70
2022-11-24T01:06:59.543Z,94.80
2022-11-24T01:09:31.857Z,94.70
2022-11-24T01:12:03.199Z,94.90
2022-11-24T01:14:35.628Z,94.80
2022-11-24T01:17:06.664Z,94.60
2022-11-24T01:19:36.971Z,94.60
2022-11-24T01:22:07.605Z,94.50
2022-11-24T01:24:38.179Z,94.60
2022-11-24T01:27:09.181Z,94.50
2022-11-24T01:29:40.054Z,94.40
2022-11-24T01:32:14.106Z,94.60
2022-11-24T01:34:44.370Z,94.40
2022-11-24T01:37:17.795Z,94.40
2022-11-24T01:39:48.717Z,94.30
2022-11-24T01:42:19.502Z,94.20
2022-11-24T01:44:54.758Z,94.10
2022-11-24T01:47:41.116Z,93.90
2022-11-24T01:50:18.764Z,93.80
2022-11-24T01:52:56.171Z,93.70
2022-11-24T01:55:31.726Z,93.50
2022-11-24T01:58:08.732Z,93.50
2022-11-24T02:00:40.719Z,93.20
2022-11-24T02:03:10.936Z,93.00
2022-11-24T02:05:52.648Z,92.60
2022-11-24T02:08:32.324Z,92.30
2022-11-24T02:11:06.514Z,91.90
2022-11-24T02:13:40.015Z,91.90
2022-11-24T02:16:12.836Z,91.80
2022-11-24T02:18:44.280Z,91.90
2022-11-24T02:21:17.181Z,91.50
2022-11-24T02:24:16.255Z,91.30
2022-11-24T02:26:49.745Z,91.50
2022-11-24T02:29:19.890Z,91.20
2022-11-24T02:31:54.716Z,91.20
2022-11-24T02:34:24.619Z,91.10
2022-11-24T02:36:54.387Z,91.00
2022-11-24T02:39:24.310Z,91.20
2022-11-24T02:42:03.056Z,91.10
2022-11-24T02:44:37.644Z,91.20
2022-11-24T02:47:10.182Z,91.50
2022-11-24T02:49:40.420Z,91.50
2022-11-24T02:52:10.727Z,91.50
2022-11-24T02:54:40.566Z,91.30
2022-11-24T02:57:10.776Z,91.10
2022-11-24T02:59:40.767Z,91.10
2022-11-24T03:02:12.127Z,91.40
2022-11-24T03:04:42.068Z,91.30
2022-11-24T03:07:11.970Z,91.20
2022-11-24T03:09:41.853Z,91.00
2022-11-24T03:12:11.664Z,91.20
2022-11-24T03:14:41.528Z,91.40
2022-11-24T03:17:12.220Z,91.30
2022-11-24T03:19:42.101Z,91.00
2022-11-24T03:22:11.967Z,91.20
2022-11-24T03:24:41.899Z,91.20
2022-11-24T03:27:11.842Z,91.10
2022-11-24T03:29:42.067Z,91.20
2022-11-24T03:32:11.865Z,90.80
2022-11-24T03:34:42.232Z,90.70
2022-11-24T03:37:12.461Z,90.60
2022-11-24T03:39:42.301Z,90.60
2022-11-24T03:42:13.087Z,90.70
2022-11-24T03:44:42.970Z,90.60
2022-11-24T03:47:14.515Z,90.70
2022-11-24T03:49:44.397Z,90.20
2022-11-24T03:52:14.384Z,90.00
2022-11-24T03:54:44.827Z,89.60
2022-11-24T03:57:14.125Z,89.90
2022-11-24T03:59:44.032Z,89.60
2022-11-24T04:02:14.159Z,89.80
2022-11-24T04:04:49.572Z,89.90
2022-11-24T04:07:20.812Z,90.10
2022-11-24T04:09:50.610Z,90.10
2022-11-24T04:12:37.256Z,87.40
2022-11-24T04:15:07.544Z,87.70
2022-11-24T04:17:37.547Z,86.90
2022-11-24T04:20:08.455Z,87.10
2022-11-24T04:22:39.281Z,87.70
2022-11-24T04:25:10.454Z,87.40
2022-11-24T04:27:42.725Z,87.40
2022-11-24T04:30:13.122Z,86.30
2022-11-24T04:32:42.534Z,84.90
2022-11-24T04:35:12.671Z,83.90
2022-11-24T04:37:43.613Z,84.60
2022-11-24T04:40:14.949Z,85.00
2022-11-24T04:42:45.212Z,84.60
2022-11-24T04:45:15.252Z,85.10
2022-11-24T04:47:45.330Z,84.30
2022-11-24T04:50:15.686Z,83.90
2022-11-24T04:52:45.242Z,82.70
2022-11-24T04:55:15.312Z,82.40
2022-11-24T04:57:45.304Z,82.20
2022-11-24T05:00:15.926Z,81.20
2022-11-24T05:02:45.985Z,82.10
2022-11-24T05:05:16.001Z,82.70
2022-11-24T05:07:45.903Z,80.80
2022-11-24T05:10:31.072Z,80.90
2022-11-24T05:13:01.435Z,81.00
2022-11-24T05:15:31.882Z,82.90
2022-11-24T05:18:01.957Z,80.50
2022-11-24T05:20:31.838Z,81.40
2022-11-24T05:23:09.978Z,79.20
2022-11-24T05:25:44.857Z,79.40
2022-11-24T05:28:17.344Z,79.50
2022-11-24T05:30:48.147Z,78.50
2022-11-24T05:33:24.765Z,78.50
2022-11-24T05:35:54.739Z,78.80
2022-11-24T05:38:25.416Z,77.90
2022-11-24T05:40:55.630Z,79.40
2022-11-24T05:43:24.862Z,79.40
2022-11-24T05:45:54.682Z,79.30
2022-11-24T05:48:25.527Z,78.70
2022-11-24T05:50:58.609Z,78.60
2022-11-24T05:53:28.815Z,78.80
2022-11-24T05:55:58.462Z,78.70
2022-11-24T05:58:30.265Z,77.40
2022-11-24T06:01:00.619Z,78.50
2022-11-24T06:03:31.248Z,75.70
2022-11-24T06:06:01.101Z,75.80
2022-11-24T06:08:31.453Z,76.90
2022-11-24T06:11:14.974Z,75.20
2022-11-24T06:13:46.059Z,75.70
2022-11-24T06:16:16.684Z,77.40
2022-11-24T06:18:46.750Z,77.90
2022-11-24T06:21:16.646Z,77.90
2022-11-24T06:23:49.541Z,76.40
2022-11-24T06:26:20.319Z,77.20
2022-11-24T06:28:50.310Z,77.50
2022-11-24T06:31:20.325Z,78.00
2022-11-24T06:33:50.233Z,77.40
2022-11-24T06:36:20.292Z,74.00
2022-11-24T06:38:50.196Z,75.60
2022-11-24T06:41:21.406Z,76.50
2022-11-24T06:43:51.192Z,76.40
2022-11-24T06:46:21.251Z,75.20
2022-11-24T06:48:54.526Z,75.70
2022-11-24T06:51:24.883Z,75.70
2022-11-24T06:53:55.264Z,76.40
2022-11-24T06:56:25.636Z,76.00
2022-11-24T06:58:56.770Z,73.90
2022-11-24T07:01:29.550Z,74.70
2022-11-24T07:04:00.326Z,75.30
2022-11-24T07:06:31.460Z,75.30
2022-11-24T07:09:01.345Z,74.50
2022-11-24T07:11:32.539Z,75.50
2022-11-24T07:14:02.409Z,74.80
2022-11-24T07:16:33.021Z,76.40
2022-11-24T07:19:03.737Z,75.20
2022-11-24T07:21:34.750Z,75.20
2022-11-24T07:24:05.102Z,75.50
2022-11-24T07:26:38.874Z,74.20
2022-11-24T07:29:08.804Z,74.50
2022-11-24T07:31:38.712Z,75.30
2022-11-24T07:34:09.445Z,75.60
2022-11-24T07:36:40.056Z,74.90
2022-11-24T07:39:10.570Z,74.60
2022-11-24T07:41:43.313Z,74.10
2022-11-24T07:44:13.146Z,73.60
2022-11-24T07:46:42.970Z,73.40
2022-11-24T07:49:12.983Z,74.40
2022-11-24T07:51:43.175Z,74.50
2022-11-24T07:54:12.457Z,74.50
2022-11-24T07:56:42.486Z,75.10
2022-11-24T07:59:13.388Z,74.30
2022-11-24T08:01:43.264Z,74.10
2022-11-24T08:04:13.301Z,72.00
2022-11-24T08:06:47.208Z,73.00
2022-11-24T08:09:17.519Z,73.00
2022-11-24T08:11:48.552Z,74.00
2022-11-24T08:14:18.528Z,73.00
2022-11-24T08:16:48.457Z,73.10
2022-11-24T08:19:18.365Z,71.70
2022-11-24T08:21:48.162Z,70.60
2022-11-24T08:24:18.676Z,71.30
2022-11-24T08:26:48.726Z,71.60
2022-11-24T08:29:19.095Z,72.00
2022-11-24T08:31:52.851Z,70.10
2022-11-24T08:34:26.862Z,71.80
2022-11-24T08:36:56.865Z,72.40
2022-11-24T08:39:26.909Z,72.70
2022-11-24T08:41:56.792Z,71.70
2022-11-24T08:44:26.935Z,72.60
2022-11-24T08:46:57.985Z,71.30
2022-11-24T08:49:27.939Z,71.90
2022-11-24T08:51:59.983Z,69.90
2022-11-24T08:54:29.863Z,71.60
2022-11-24T08:57:00.073Z,72.10
2022-11-24T08:59:29.525Z,71.80
2022-11-24T09:01:59.633Z,71.40
2022-11-24T09:04:29.716Z,71.60
2022-11-24T09:07:00.819Z,72.10
2022-11-24T09:09:30.912Z,72.10
2022-11-24T09:12:00.286Z,71.20
2022-11-24T09:14:31.382Z,73.10
2022-11-24T09:17:04.547Z,74.10
2022-11-24T09:19:36.300Z,73.90
2022-11-24T09:22:06.850Z,74.40
2022-11-24T09:24:37.055Z,74.80
2022-11-24T09:27:06.327Z,74.50
2022-11-24T09:29:37.343Z,73.60
2022-11-24T09:32:07.337Z,74.10
2022-11-24T09:34:41.451Z,74.50
2022-11-24T09:37:14.271Z,74.30
2022-11-24T09:39:54.123Z,74.10
2022-11-24T09:42:59.784Z,74.60
2022-11-24T09:46:05.529Z,74.80
2022-11-24T09:48:43.134Z,75.00
2022-11-24T09:51:15.827Z,75.00
2022-11-24T09:53:59.644Z,74.60
2022-11-24T09:56:33.570Z,75.20
2022-11-24T09:59:12.830Z,75.10
2022-11-24T10:01:46.142Z,75.40
2022-11-24T10:04:44.968Z,77.50
2022-11-24T10:07:53.777Z,80.20
2022-11-24T10:11:02.503Z,81.10
2022-11-24T10:14:11.199Z,82.20
2022-11-24T10:17:01.079Z,81.60
2022-11-24T10:20:02.046Z,82.10
2022-11-24T10:22:51.802Z,82.60
2022-11-24T10:25:35.621Z,82.40
2022-11-24T10:28:10.729Z,82.40
2022-11-24T10:30:40.842Z,82.40
2022-11-24T10:33:31.812Z,82.40
2022-11-24T10:36:11.398Z,82.50
2022-11-24T10:39:01.721Z,82.00
2022-11-24T10:41:42.915Z,82.80
2022-11-24T10:44:17.135Z,83.50
2022-11-24T10:46:47.431Z,83.40
2022-11-24T10:49:22.812Z,83.60
2022-11-24T10:52:23.737Z,82.90
2022-11-24T10:54:59.338Z,83.80
2022-11-24T10:57:48.888Z,84.50
2022-11-24T11:00:38.446Z,84.60
2022-11-24T11:03:29.773Z,84.60
2022-11-24T11:06:16.353Z,85.00
2022-11-24T11:08:46.411Z,85.20
2022-11-24T11:11:36.577Z,84.40
2022-11-24T11:14:08.798Z,85.00
2022-11-24T11:16:59.626Z,85.60
2022-11-24T11:19:50.206Z,85.60
2022-11-24T11:22:39.201Z,85.60
2022-11-24T11:25:46.665Z,85.80
2022-11-24T11:28:44.242Z,85.60
2022-11-24T11:31:24.550Z,85.60
2022-11-24T11:34:30.747Z,85.70
2022-11-24T11:37:02.479Z,86.20
2022-11-24T11:39:37.662Z,86.80
2022-11-24T11:43:00.816Z,87.20
2022-11-24T11:45:31.592Z,87.00
2022-11-24T11:48:40.599Z,87.30
2022-11-24T11:54:55.819Z,88.20
2022-11-24T11:57:57.619Z,88.30
2022-11-24T12:00:27.836Z,88.30
2022-11-24T12:03:22.604Z,88.50
2022-11-24T12:06:14.373Z,88.30
2022-11-24T12:09:20.354Z,88.70
2022-11-24T12:12:16.007Z,89.00
2022-11-24T12:15:10.574Z,89.10
2022-11-24T12:17:51.646Z,89.30
2022-11-24T12:20:31.741Z,89.40
2022-11-24T12:23:19.026Z,89.60
2022-11-24T12:26:14.316Z,89.70
2022-11-24T12:29:24.965Z,89.80
2022-11-24T12:32:23.434Z,90.00
2022-11-24T12:35:10.703Z,90.00
2022-11-24T12:37:56.927Z,90.10
2022-11-24T12:40:50.683Z,90.00
2022-11-24T12:43:35.588Z,89.80
2022-11-24T12:46:19.787Z,89.80
2022-11-24T12:49:20.595Z,90.10
2022-11-24T12:51:58.218Z,90.30
2022-11-24T12:54:32.765Z,90.30
2022-11-24T12:57:16.665Z,90.20
2022-11-24T13:00:09.052Z,90.10
2022-11-24T13:03:03.010Z,89.90
2022-11-24T13:05:48.225Z,90.10
2022-11-24T13:08:20.433Z,90.10
2022-11-24T13:10:58.216Z,90.20
2022-11-24T13:13:51.911Z,90.30
2022-11-24T13:16:53.623Z,90.30
2022-11-24T13:19:21.909Z,90.50
2022-11-24T13:22:12.607Z,90.40
2022-11-24T13:24:44.343Z,90.50
2022-11-24T13:27:29.288Z,90.60
2022-11-24T13:29:59.266Z,90.80
2022-11-24T13:32:48.857Z,90.80
2022-11-24T13:35:21.046Z,90.40
2022-11-24T13:37:53.295Z,90.30
2022-11-24T13:40:45.940Z,90.20
2022-11-24T13:43:25.384Z,90.20
2022-11-24T13:45:55.838Z,90.30
2022-11-24T13:48:44.519Z,90.40
2022-11-24T13:51:25.492Z,90.20
2022-11-24T13:53:59.490Z,90.10
2022-11-24T13:56:31.900Z,90.40
2022-11-24T13:59:17.712Z,90.30
2022-11-24T14:01:58.349Z,90.20
2022-11-24T14:04:31.768Z,90.10
2022-11-24T14:07:09.405Z,90.10
2022-11-24T14:09:47.390Z,90.10
2022-11-24T14:12:26.657Z,90.10
2022-11-24T14:15:15.451Z,90.30
2022-11-24T14:17:45.732Z,90.40
2022-11-24T14:20:28.179Z,90.40
2022-11-24T14:22:58.211Z,90.20
2022-11-24T14:25:35.641Z,90.30
2022-11-24T14:28:15.924Z,90.10
2022-11-24T14:30:45.876Z,89.80
2022-11-24T14:33:17.571Z,89.30
2022-11-24T14:35:51.050Z,88.90
2022-11-24T14:38:21.069Z,89.30
2022-11-24T14:40:55.528Z,89.20
2022-11-24T14:43:34.517Z,89.10
2022-11-24T14:46:07.983Z,89.50
2022-11-24T14:48:48.902Z,89.70
2022-11-24T14:51:28.921Z,90.00
2022-11-24T14:54:04.188Z,90.10
2022-11-24T14:56:38.255Z,90.40
2022-11-24T14:59:24.853Z,90.50
2022-11-24T15:01:55.897Z,90.70
2022-11-24T15:04:54.807Z,90.50
2022-11-24T15:07:31.812Z,90.60
2022-11-24T15:10:04.009Z,90.60
2022-11-24T15:12:44.133Z,90.40
2022-11-24T15:15:25.848Z,90.20
2022-11-24T15:18:04.864Z,90.20
2022-11-24T15:20:47.855Z,90.30
2022-11-24T15:23:33.338Z,90.30
2022-11-24T15:26:30.737Z,90.40
2022-11-24T15:29:02.325Z,90.30
2022-11-24T15:31:33.321Z,90.30
2022-11-24T15:34:03.193Z,90.20
2022-11-24T15:36:33.325Z,90.40
2022-11-24T15:39:03.152Z,90.40
2022-11-24T15:41:35.082Z,90.70
2022-11-24T15:44:05.343Z,90.50
2022-11-24T15:46:39.486Z,90.50
2022-11-24T15:49:09.983Z,90.60
2022-11-24T15:51:44.867Z,90.60
2022-11-24T15:54:18.742Z,90.60
2022-11-24T15:56:49.471Z,90.70
2022-11-24T15:59:21.201Z,90.60
2022-11-24T16:01:52.568Z,90.70
2022-11-24T16:04:23.172Z,90.90
2022-11-24T16:06:52.423Z,90.80
2022-11-24T16:09:22.489Z,91.00
2022-11-24T16:11:52.325Z,91.00
2022-11-24T16:14:22.712Z,91.10
2022-11-24T16:16:53.594Z,91.20
2022-11-24T16:19:27.520Z,91.00
2022-11-24T16:21:57.542Z,91.20
2022-11-24T16:24:27.318Z,91.20
2022-11-24T16:26:57.274Z,91.30
2022-11-24T16:29:27.282Z,91.20
2022-11-24T16:31:57.304Z,91.20
2022-11-24T16:34:31.077Z,91.10
2022-11-24T16:37:01.274Z,90.90
2022-11-24T16:39:31.164Z,90.90
2022-11-24T16:42:00.985Z,91.10
2022-11-24T16:44:30.823Z,91.00
2022-11-24T16:47:00.829Z,90.90
2022-11-24T16:49:33.912Z,90.80
2022-11-24T16:52:06.255Z,90.90
2022-11-24T16:54:38.733Z,90.90
2022-11-24T16:57:14.609Z,90.90
2022-11-24T16:59:47.953Z,91.00
2022-11-24T17:02:19.550Z,91.10
2022-11-24T17:04:51.449Z,91.00
2022-11-24T17:07:23.744Z,91.10
2022-11-24T17:09:56.767Z,91.20
2022-11-24T17:12:27.325Z,91.20
2022-11-24T17:15:24.574Z,91.10
2022-11-24T17:18:08.720Z,91.00
2022-11-24T17:20:39.008Z,91.00
2022-11-24T17:23:08.975Z,91.10
2022-11-24T17:25:38.778Z,91.10
2022-11-24T17:28:08.609Z,91.20
2022-11-24T17:30:39.999Z,91.20
2022-11-24T17:33:09.880Z,91.20
2022-11-24T17:35:39.949Z,91.40
2022-11-24T17:38:09.907Z,91.50
2022-11-24T17:40:52.641Z,91.60
2022-11-24T17:43:22.670Z,91.70
2022-11-24T17:46:02.595Z,91.70
2022-11-24T17:48:34.069Z,91.60
2022-11-24T17:51:09.484Z,91.60
2022-11-24T17:53:41.689Z,91.60
2022-11-24T17:56:15.715Z,91.50
2022-11-24T17:58:45.749Z,91.50
2022-11-24T18:01:18.843Z,91.50
2022-11-24T18:03:53.194Z,91.60
2022-11-24T18:06:26.784Z,91.70
2022-11-24T18:08:58.369Z,91.60
2022-11-24T18:11:32.052Z,91.80
2022-11-24T18:14:06.703Z,91.70
2022-11-24T18:16:37.396Z,91.80
2022-11-24T18:19:11.895Z,91.70
2022-11-24T18:21:43.205Z,92.00
2022-11-24T18:24:17.392Z,92.10
2022-11-24T18:26:49.477Z,91.90
2022-11-24T18:29:22.138Z,92.00
2022-11-24T18:31:52.093Z,91.90
2022-11-24T18:34:22.017Z,92.00
2022-11-24T18:36:54.268Z,92.10
2022-11-24T18:39:24.212Z,92.40
2022-11-24T18:41:54.038Z,92.40
2022-11-24T18:44:24.625Z,92.40
2022-11-24T18:47:01.007Z,92.30
2022-11-24T18:49:32.825Z,92.30
2022-11-24T18:52:05.913Z,92.40
2022-11-24T18:54:38.254Z,92.40
2022-11-24T18:57:08.117Z,92.50
2022-11-24T18:59:39.092Z,92.50
2022-11-24T19:02:09.262Z,92.60
2022-11-24T19:04:39.223Z,92.70
2022-11-24T19:07:09.084Z,92.70
2022-11-24T19:09:39.580Z,92.70
2022-11-24T19:12:10.466Z,92.60
2022-11-24T19:14:40.511Z,92.60
2022-11-24T19:17:10.379Z,92.60
2022-11-24T19:19:41.496Z,92.70
2022-11-24T19:22:12.025Z,92.90
2022-11-24T19:24:42.787Z,93.00
2022-11-24T19:27:12.656Z,92.80
2022-11-24T19:29:43.272Z,92.70
2022-11-24T19:32:13.359Z,92.80
2022-11-24T19:34:43.256Z,92.90
2022-11-24T19:37:13.147Z,92.70
2022-11-24T19:39:43.055Z,92.60
2022-11-24T19:42:12.976Z,92.40
2022-11-24T19:44:42.893Z,92.30
2022-11-24T19:47:19.943Z,92.30
2022-11-24T19:49:55.425Z,92.20
2022-11-24T19:52:25.284Z,92.20
2022-11-24T19:54:55.058Z,92.20
2022-11-24T19:57:25.088Z,92.20
2022-11-24T19:59:55.142Z,92.10
2022-11-24T20:02:25.107Z,92.20
2022-11-24T20:04:54.912Z,92.30
2022-11-24T20:07:24.878Z,92.40
2022-11-24T20:09:54.789Z,92.40
2022-11-24T20:12:24.548Z,92.60
2022-11-24T20:14:54.436Z,92.70
2022-11-24T20:17:24.295Z,92.70
2022-11-24T20:19:54.144Z,92.60
2022-11-24T20:22:24.246Z,92.50
2022-11-24T20:24:54.096Z,92.50
2022-11-24T20:27:23.934Z,92.70
2022-11-24T20:29:53.780Z,92.70
2022-11-24T20:32:23.636Z,92.70
2022-11-24T20:34:54.143Z,92.70
2022-11-24T20:37:24.999Z,92.70
2022-11-24T20:39:54.860Z,92.70
2022-11-24T20:42:24.665Z,93.00
2022-11-24T20:44:54.606Z,93.20
2022-11-24T20:47:24.366Z,93.30
2022-11-24T20:49:54.215Z,93.40
2022-11-24T20:52:24.041Z,93.40
2022-11-24T20:54:53.818Z,93.40
2022-11-24T20:57:23.545Z,93.40
2022-11-24T20:59:54.067Z,93.40
2022-11-24T21:02:23.997Z,93.30
2022-11-24T21:04:54.545Z,93.40
2022-11-24T21:07:24.336Z,93.50
2022-11-24T21:09:54.203Z,93.50
2022-11-24T21:12:25.064Z,93.50
2022-11-24T21:14:54.947Z,93.50
2022-11-24T21:17:24.799Z,93.50
2022-11-24T21:19:59.598Z,93.40
2022-11-24T21:22:30.758Z,93.50
2022-11-24T21:25:00.714Z,93.50
2022-11-24T21:27:30.507Z,93.40
2022-11-24T21:30:00.453Z,93.20
2022-11-24T21:32:32.061Z,93.20
2022-11-24T21:35:01.866Z,93.30
2022-11-24T21:37:31.684Z,93.20
2022-11-24T21:40:01.537Z,93.10
2022-11-24T21:42:31.414Z,93.20
2022-11-24T21:45:03.705Z,93.30
2022-11-24T21:47:33.486Z,93.30
2022-11-24T21:50:03.265Z,93.40
2022-11-24T21:52:34.004Z,93.40
2022-11-24T21:55:03.809Z,93.50
2022-11-24T21:57:33.678Z,93.60
2022-11-24T22:00:03.669Z,93.60
2022-11-24T22:02:33.568Z,93.60
2022-11-24T22:05:03.583Z,93.60
2022-11-24T22:07:34.885Z,93.70
2022-11-24T22:10:04.765Z,93.70
2022-11-24T22:12:34.563Z,93.80
2022-11-24T22:15:04.609Z,93.80
2022-11-24T22:17:34.635Z,93.80
2022-11-24T22:20:04.433Z,93.70
2022-11-24T22:22:34.291Z,93.70
2022-11-24T22:25:04.574Z,93.80
2022-11-24T22:27:34.684Z,93.90
2022-11-24T22:30:07.566Z,93.90
2022-11-24T22:32:37.324Z,94.00
2022-11-24T22:35:07.651Z,94.10
2022-11-24T22:37:38.492Z,94.20
2022-11-24T22:40:09.051Z,94.10
2022-11-24T22:42:38.904Z,94.00
2022-11-24T22:45:09.415Z,94.10
2022-11-24T22:47:39.365Z,94.20
2022-11-24T22:50:10.108Z,94.20
2022-11-24T22:52:42.105Z,94.20
2022-11-24T22:55:12.033Z,94.30
2022-11-24T22:57:46.017Z,94.30
2022-11-24T23:00:21.230Z,94.20
2022-11-24T23:02:51.098Z,94.20
2022-11-24T23:05:21.096Z,94.20
2022-11-24T23:07:50.994Z,94.10
2022-11-24T23:10:21.113Z,94.10
2022-11-24T23:12:51.531Z,93.90
2022-11-24T23:15:21.465Z,93.80
2022-11-24T23:17:51.183Z,93.90
2022-11-24T23:20:21.065Z,93.80
2022-11-24T23:22:51.051Z,93.80
2022-11-24T23:25:20.789Z,93.90
2022-11-24T23:27:50.599Z,94.00
2022-11-24T23:30:20.753Z,94.00
2022-11-24T23:32:50.491Z,94.10
2022-11-24T23:35:20.315Z,94.10
2022-11-24T23:38:07.049Z,93.90
2022-11-24T23:40:37.476Z,94.00
2022-11-24T23:43:07.345Z,94.00
2022-11-24T23:45:37.329Z,94.10
2022-11-24T23:48:10.119Z,93.90
2022-11-24T23:50:39.922Z,94.00
2022-11-24T23:53:10.410Z,94.10
2022-11-24T23:55:40.677Z,94.20
2022-11-24T23:58:10.711Z,94.30
